createdAt,value
2022-12-17T00:02:21.108Z,99684.66
2022-12-17T00:06:41.461Z,99682.06
2022-12-17T00:11:02.345Z,99690.75
2022-12-17T00:15:25.015Z,99695.81
2022-12-17T00:19:45.828Z,99693.16
2022-12-17T00:24:06.718Z,99677.81
2022-12-17T00:28:28.511Z,99669.91
2022-12-17T00:32:50.938Z,99678.56
2022-12-17T00:37:11.959Z,99687.16
2022-12-17T00:41:37.562Z,99673.34
2022-12-17T00:45:58.039Z,99695.00
2022-12-17T00:50:20.917Z,99690.63
2022-12-17T00:54:41.369Z,99690.63
2022-12-17T00:59:01.533Z,99686.22
2022-12-17T01:03:27.937Z,99701.72
2022-12-17T01:07:58.314Z,99705.94
2022-12-17T01:12:20.339Z,99714.53
2022-12-17T01:16:52.093Z,99716.31
2022-12-17T01:21:14.880Z,99711.88
2022-12-17T01:25:36.923Z,99721.50
2022-12-17T01:29:57.127Z,99714.53
2022-12-17T01:34:17.526Z,99721.41
2022-12-17T01:38:40.833Z,99716.03
2022-12-17T01:43:05.594Z,99709.22
2022-12-17T01:47:27.693Z,99705.81
2022-12-17T01:51:49.633Z,99716.31
2022-12-17T01:56:12.804Z,99745.41
2022-12-17T02:00:37.130Z,99760.88
2022-12-17T02:04:58.532Z,99774.81
2022-12-17T02:09:26.473Z,99786.88
2022-12-17T02:13:51.419Z,99817.16
2022-12-17T02:18:17.878Z,99824.91
2022-12-17T02:22:44.995Z,99839.69
2022-12-17T02:27:10.117Z,99841.78
2022-12-17T02:31:34.340Z,99856.31
2022-12-17T02:36:00.635Z,99865.94
2022-12-17T02:40:21.506Z,99882.28
2022-12-17T02:44:44.685Z,99878.84
2022-12-17T02:49:05.385Z,99885.91
2022-12-17T02:53:26.559Z,99892.03
2022-12-17T02:57:50.864Z,99896.28
2022-12-17T03:02:16.649Z,99898.06
2022-12-17T03:06:37.529Z,99897.34
2022-12-17T03:16:14.139Z,99899.69
2022-12-17T03:20:36.749Z,99906.78
2022-12-17T03:24:57.626Z,99903.31
2022-12-17T03:29:17.948Z,99919.53
2022-12-17T04:15:58.429Z,99936.63
2022-12-17T04:22:11.738Z,99933.16
2022-12-17T04:26:32.072Z,99944.56
2022-12-17T04:30:53.156Z,99953.03
2022-12-17T04:35:10.116Z,99963.47
2022-12-17T04:39:32.120Z,99955.69
2022-12-17T04:43:52.443Z,99960.78
2022-12-17T04:48:19.776Z,99965.03
2022-12-17T04:52:40.260Z,99965.03
2022-12-17T04:57:02.436Z,99970.94
2022-12-17T05:01:22.774Z,99984.13
2022-12-17T05:05:43.034Z,99993.56
2022-12-17T05:10:03.893Z,99999.66
2022-12-17T05:14:25.645Z,99999.22
2022-12-17T05:18:45.981Z,100012.16
2022-12-17T05:23:06.315Z,100024.41
2022-12-17T05:27:27.195Z,100030.38
2022-12-17T05:31:49.243Z,100036.31
2022-12-17T05:36:09.868Z,100051.88
2022-12-17T05:40:30.744Z,100050.16
2022-12-17T05:44:51.036Z,100051.19
2022-12-17T05:49:13.062Z,100059.78
2022-12-17T05:53:33.820Z,100059.41
2022-12-17T05:57:56.566Z,100073.41
2022-12-17T06:02:17.463Z,100075.19
2022-12-17T06:06:39.293Z,100091.69
2022-12-17T06:10:59.528Z,100089.78
2022-12-17T06:15:19.753Z,100102.81
2022-12-17T06:19:42.321Z,100106.03
2022-12-17T06:24:03.922Z,100105.44
2022-12-17T06:28:24.288Z,100107.16
2022-12-17T06:32:45.019Z,100129.50
2022-12-17T06:37:05.375Z,100120.03
2022-12-17T06:41:26.963Z,100136.16
2022-12-17T06:45:47.432Z,100155.41
2022-12-17T06:50:07.742Z,100160.44
2022-12-17T06:54:28.140Z,100178.81
2022-12-17T06:58:50.153Z,100195.06
2022-12-17T07:03:14.971Z,100207.22
2022-12-17T07:07:35.608Z,100216.84
2022-12-17T07:11:56.757Z,100220.25
2022-12-17T07:16:19.303Z,100213.44
2022-12-17T07:20:40.440Z,100229.00
2022-12-17T07:25:02.211Z,100230.09
2022-12-17T07:29:24.519Z,100226.63
2022-12-17T07:33:46.803Z,100217.16
2022-12-17T07:38:07.129Z,100236.25
2022-12-17T07:42:27.635Z,100243.16
2022-12-17T07:46:48.141Z,100243.22
2022-12-17T07:51:10.669Z,100247.72
2022-12-17T07:55:30.918Z,100258.09
2022-12-17T07:59:51.360Z,100277.13
2022-12-17T08:04:23.104Z,100287.66
2022-12-17T08:08:44.927Z,100298.88
2022-12-17T08:13:21.424Z,100311.22
2022-12-17T08:17:41.865Z,100289.16
2022-12-17T08:22:02.635Z,100304.03
2022-12-17T08:26:24.678Z,100307.59
2022-12-17T08:30:45.043Z,100299.09
2022-12-17T08:35:05.496Z,100307.69
2022-12-17T08:39:26.355Z,100297.38
2022-12-17T08:43:49.549Z,100301.09
2022-12-17T08:48:09.854Z,100315.81
2022-12-17T08:52:30.355Z,100321.91
2022-12-17T08:56:50.690Z,100326.50
2022-12-17T09:01:12.375Z,100328.44
2022-12-17T09:05:33.390Z,100337.03
2022-12-17T09:09:53.737Z,100338.00
2022-12-17T09:14:14.302Z,100343.34
2022-12-17T09:18:38.991Z,100347.06
2022-12-17T09:22:59.291Z,100348.72
2022-12-17T09:27:19.966Z,100364.44
2022-12-17T09:31:40.164Z,100372.16
2022-12-17T09:36:01.876Z,100399.81
2022-12-17T09:40:23.395Z,100383.44
2022-12-17T09:44:50.900Z,100400.59
2022-12-17T09:49:31.259Z,100394.53
2022-12-17T09:53:56.615Z,100387.16
2022-12-17T09:58:17.544Z,100393.94
2022-12-17T10:02:41.027Z,100402.41
2022-12-17T10:07:01.788Z,100416.25
2022-12-17T10:11:37.407Z,100405.34
2022-12-17T10:16:00.073Z,100412.19
2022-12-17T10:20:21.832Z,100410.53
2022-12-17T10:24:42.759Z,100415.59
2022-12-17T10:29:04.675Z,100422.97
2022-12-17T10:33:26.159Z,100414.06
2022-12-17T10:37:46.883Z,100420.78
2022-12-17T10:42:07.262Z,100434.28
2022-12-17T10:46:29.485Z,100436.81
2022-12-17T10:50:51.707Z,100454.72
2022-12-17T10:55:21.328Z,100454.72
2022-12-17T10:59:50.503Z,100456.34
2022-12-17T11:04:13.910Z,100454.00
2022-12-17T11:08:35.816Z,100466.16
2022-12-17T11:13:01.086Z,100478.31
2022-12-17T11:17:25.559Z,100479.13
2022-12-17T11:21:52.224Z,100483.84
2022-12-17T11:26:18.737Z,100494.50
2022-12-17T11:30:39.869Z,100499.69
2022-12-17T11:35:15.274Z,100502.75
2022-12-17T11:44:07.795Z,100517.84
2022-12-17T11:48:33.982Z,100511.97
2022-12-17T11:53:04.479Z,100518.03
2022-12-17T11:57:37.189Z,100521.56
2022-12-17T12:02:06.084Z,100528.34
2022-12-17T12:06:36.318Z,100532.91
2022-12-17T12:11:07.294Z,100541.56
2022-12-17T12:15:42.404Z,100545.03
2022-12-17T12:20:08.753Z,100547.97
2022-12-17T12:24:42.187Z,100543.06
2022-12-17T12:29:11.677Z,100550.94
2022-12-17T12:33:46.349Z,100543.22
2022-12-17T12:38:07.143Z,100540.41
2022-12-17T12:42:40.022Z,100537.94
2022-12-17T12:47:05.278Z,100553.59
2022-12-17T12:51:34.206Z,100557.91
2022-12-17T12:55:57.365Z,100572.75
2022-12-17T13:00:17.735Z,100571.84
2022-12-17T13:04:50.068Z,100575.34
2022-12-17T13:09:06.165Z,100577.13
2022-12-17T13:13:14.502Z,100587.59
2022-12-17T13:17:30.452Z,100587.75
2022-12-17T13:21:33.493Z,100581.38
2022-12-17T13:25:38.493Z,100597.97
2022-12-17T13:29:41.921Z,100601.47
2022-12-17T13:33:52.596Z,100605.69
2022-12-17T13:38:03.822Z,100621.09
2022-12-17T13:42:19.574Z,100637.91
2022-12-17T13:46:24.739Z,100631.66
2022-12-17T13:50:35.255Z,100642.94
2022-12-17T13:54:38.553Z,100645.78
2022-12-17T13:58:44.266Z,100660.22
2022-12-17T14:02:48.943Z,100667.94
2022-12-17T14:06:53.971Z,100684.31
2022-12-17T14:11:17.981Z,100692.94
2022-12-17T14:15:26.933Z,100699.84
2022-12-17T14:19:33.137Z,100705.84
2022-12-17T14:23:36.808Z,100716.06
2022-12-17T14:27:40.534Z,100717.69
2022-12-17T14:31:53.824Z,100729.88
2022-12-17T14:35:57.815Z,100728.06
2022-12-17T14:40:05.379Z,100741.72
2022-12-17T14:44:09.070Z,100737.31
2022-12-17T14:48:17.249Z,100742.41
2022-12-17T14:52:28.275Z,100747.53
2022-12-17T14:56:32.071Z,100750.94
2022-12-17T15:00:36.249Z,100755.31
2022-12-17T15:04:41.227Z,100767.16
2022-12-17T15:08:47.365Z,100765.38
2022-12-17T15:12:51.559Z,100779.25
2022-12-17T15:16:55.918Z,100777.53
2022-12-17T15:21:00.933Z,100788.56
2022-12-17T15:25:03.988Z,100794.41
2022-12-17T15:29:07.055Z,100800.31
2022-12-17T15:33:10.951Z,100803.00
2022-12-17T15:37:18.803Z,100805.19
2022-12-17T15:41:42.806Z,100814.66
2022-12-17T15:45:48.368Z,100826.47
2022-12-17T15:49:51.444Z,100824.69
2022-12-17T15:53:55.866Z,100831.34
2022-12-17T15:57:59.607Z,100840.88
2022-12-17T16:02:03.221Z,100843.34
2022-12-17T16:06:06.978Z,100850.28
2022-12-17T16:10:12.765Z,100842.09
2022-12-17T16:14:16.104Z,100854.88
2022-12-17T16:18:19.126Z,100863.34
2022-12-17T16:22:22.691Z,100870.16
2022-12-17T16:26:27.097Z,100868.41
2022-12-17T16:30:30.128Z,100878.41
2022-12-17T16:34:33.217Z,100881.97
2022-12-17T16:38:37.160Z,100888.78
2022-12-17T16:42:41.970Z,100890.38
2022-12-17T16:46:46.415Z,100888.44
2022-12-17T16:50:50.800Z,100895.38
2022-12-17T16:54:53.841Z,100898.63
2022-12-17T16:58:58.600Z,100911.41
2022-12-17T17:03:01.718Z,100920.78
2022-12-17T17:07:05.213Z,100921.50
2022-12-17T17:11:09.899Z,100931.81
2022-12-17T17:15:14.429Z,100936.97
2022-12-17T17:19:18.368Z,100941.34
2022-12-17T17:23:21.460Z,100936.50
2022-12-17T17:27:24.506Z,100940.63
2022-12-17T17:32:01.188Z,100942.91
2022-12-17T17:35:52.170Z,100954.09
2022-12-17T17:39:55.217Z,100964.19
2022-12-17T17:44:00.314Z,100963.00
2022-12-17T17:48:04.925Z,100975.78
2022-12-17T17:52:09.985Z,100978.25
2022-12-17T17:56:16.180Z,100989.44
2022-12-17T18:00:19.421Z,100989.56
2022-12-17T18:04:24.621Z,100995.72
2022-12-17T18:08:30.530Z,101003.19
2022-12-17T18:12:51.056Z,101005.69
2022-12-17T18:16:54.074Z,101009.19
2022-12-17T18:21:05.635Z,101018.66
2022-12-17T18:25:09.374Z,101016.78
2022-12-17T18:29:15.432Z,101026.94
2022-12-17T18:33:19.430Z,101034.72
2022-12-17T18:37:23.839Z,101040.63
2022-12-17T18:41:44.669Z,101042.38
2022-12-17T18:45:47.955Z,101049.28
2022-12-17T18:49:51.455Z,101066.53
2022-12-17T18:53:58.173Z,101063.13
2022-12-17T18:58:02.036Z,101077.06
2022-12-17T19:02:05.219Z,101090.84
2022-12-17T19:06:09.349Z,101088.81
2022-12-17T19:10:13.800Z,101101.72
2022-12-17T19:14:17.401Z,101108.47
2022-12-17T19:18:20.516Z,101113.75
2022-12-17T19:22:23.543Z,101123.53
2022-12-17T19:26:29.291Z,101130.13
2022-12-17T19:30:32.373Z,101135.66
2022-12-17T19:34:35.540Z,101140.19
2022-12-17T19:38:39.588Z,101144.53
2022-12-17T19:42:44.526Z,101145.84
2022-12-17T19:46:47.796Z,101155.13
2022-12-17T19:50:57.127Z,101157.41
2022-12-17T19:55:00.161Z,101158.28
2022-12-17T19:59:07.377Z,101163.28
2022-12-17T20:03:10.688Z,101164.19
2022-12-17T20:07:14.114Z,101172.28
2022-12-17T20:11:36.407Z,101168.66
2022-12-17T20:15:40.840Z,101170.16
2022-12-17T20:19:43.892Z,101176.94
2022-12-17T20:23:47.516Z,101182.94
2022-12-17T20:27:50.711Z,101181.03
2022-12-17T20:31:56.377Z,101182.72
2022-12-17T20:36:04.928Z,101176.72
2022-12-17T20:40:09.582Z,101180.94
2022-12-17T20:44:15.022Z,101187.91
2022-12-17T20:48:19.574Z,101196.69
2022-12-17T20:52:22.706Z,101205.44
2022-12-17T20:56:28.290Z,101209.75
2022-12-17T21:00:31.312Z,101208.84
2022-12-17T21:04:35.799Z,101208.84
2022-12-17T21:08:42.364Z,101218.41
2022-12-17T21:13:15.333Z,101220.09
2022-12-17T21:17:18.588Z,101220.78
2022-12-17T21:21:25.734Z,101227.78
2022-12-17T21:25:28.707Z,101243.53
2022-12-17T21:29:31.877Z,101245.53
2022-12-17T21:33:35.084Z,101251.13
2022-12-17T21:37:39.853Z,101261.09
2022-12-17T21:42:07.045Z,101266.84
2022-12-17T21:46:11.947Z,101258.91
2022-12-17T21:50:15.180Z,101259.69
2022-12-17T21:54:20.275Z,101263.28
2022-12-17T21:58:23.380Z,101274.56
2022-12-17T22:02:26.718Z,101267.06
2022-12-17T22:06:33.129Z,101270.66
2022-12-17T22:10:52.618Z,101275.84
2022-12-17T22:14:56.269Z,101270.47
2022-12-17T22:19:01.215Z,101276.75
2022-12-17T22:23:04.878Z,101285.53
2022-12-17T22:27:09.953Z,101284.94
2022-12-17T22:31:31.538Z,101283.81
2022-12-17T22:38:19.293Z,101280.94
2022-12-17T22:42:51.907Z,101283.69
2022-12-17T22:44:44.737Z,101286.69
2022-12-17T22:48:50.396Z,101290.75
2022-12-17T22:52:53.489Z,101297.31
2022-12-17T22:57:32.476Z,101303.19
